sensor_id;sensor_type;location;lat;lon;timestamp;pressure;altitude;pressure_sealevel;temperature;humidity
49709;BME280;35601;55.902;13.606;2023-03-23T00:00:56;99300.18;;;4.79;100.00
49709;BME280;35601;55.902;13.606;2023-03-23T00:03:21;99306.05;;;5.25;100.00
49709;BME280;35601;55.902;13.606;2023-03-23T00:05:47;99299.52;;;5.10;100.00
49709;BME280;35601;55.902;13.606;2023-03-23T00:08:13;99300.28;;;5.02;100.00
49709;BME280;35601;55.902;13.606;2023-03-23T00:10:38;99303.48;;;5.19;100.00
49709;BME280;35601;55.902;13.606;2023-03-23T00:13:03;99299.53;;;5.19;100.00
49709;BME280;35601;55.902;13.606;2023-03-23T00:15:29;99298.22;;;5.30;100.00
49709;BME280;35601;55.902;13.606;2023-03-23T00:17:54;99291.87;;;5.09;100.00
49709;BME280;35601;55.902;13.606;2023-03-23T00:20:19;99295.87;;;5.42;100.00
49709;BME280;35601;55.902;13.606;2023-03-23T00:22:44;99299.68;;;5.38;99.93
49709;BME280;35601;55.902;13.606;2023-03-23T00:25:10;99293.88;;;5.53;99.16
49709;BME280;35601;55.902;13.606;2023-03-23T00:27:35;99293.68;;;5.32;98.75
49709;BME280;35601;55.902;13.606;2023-03-23T00:30:00;99296.64;;;5.33;98.80
49709;BME280;35601;55.902;13.606;2023-03-23T00:32:25;99293.72;;;5.25;99.46
49709;BME280;35601;55.902;13.606;2023-03-23T00:34:50;99288.91;;;5.33;99.44
49709;BME280;35601;55.902;13.606;2023-03-23T00:37:16;99286.17;;;5.21;99.65
49709;BME280;35601;55.902;13.606;2023-03-23T00:39:42;99280.54;;;5.19;99.66
49709;BME280;35601;55.902;13.606;2023-03-23T00:42:07;99278.52;;;4.82;100.00
49709;BME280;35601;55.902;13.606;2023-03-23T00:44:33;99260.79;;;4.95;100.00
49709;BME280;35601;55.902;13.606;2023-03-23T00:46:58;99250.13;;;4.88;100.00
49709;BME280;35601;55.902;13.606;2023-03-23T00:49:25;99241.66;;;4.76;100.00
49709;BME280;35601;55.902;13.606;2023-03-23T00:51:49;99237.33;;;5.06;100.00
49709;BME280;35601;55.902;13.606;2023-03-23T00:54:14;99243.88;;;4.71;100.00
49709;BME280;35601;55.902;13.606;2023-03-23T00:56:40;99253.44;;;4.56;100.00
49709;BME280;35601;55.902;13.606;2023-03-23T00:59:05;99248.95;;;4.61;100.00
49709;BME280;35601;55.902;13.606;2023-03-23T01:01:31;99253.23;;;4.63;100.00
49709;BME280;35601;55.902;13.606;2023-03-23T01:03:58;99249.30;;;5.01;100.00
49709;BME280;35601;55.902;13.606;2023-03-23T01:06:21;99248.95;;;4.68;100.00
49709;BME280;35601;55.902;13.606;2023-03-23T01:08:46;99242.79;;;4.67;100.00
49709;BME280;35601;55.902;13.606;2023-03-23T01:11:15;99237.43;;;4.63;100.00
49709;BME280;35601;55.902;13.606;2023-03-23T01:13:37;99240.03;;;4.82;100.00
49709;BME280;35601;55.902;13.606;2023-03-23T01:16:03;99237.37;;;4.85;100.00
49709;BME280;35601;55.902;13.606;2023-03-23T01:18:28;99235.23;;;4.74;100.00
49709;BME280;35601;55.902;13.606;2023-03-23T01:20:54;99228.37;;;4.65;100.00
49709;BME280;35601;55.902;13.606;2023-03-23T01:23:19;99226.70;;;4.81;100.00
49709;BME280;35601;55.902;13.606;2023-03-23T01:25:45;99224.74;;;5.08;100.00
49709;BME280;35601;55.902;13.606;2023-03-23T01:28:12;99223.12;;;4.84;100.00
49709;BME280;35601;55.902;13.606;2023-03-23T01:30:36;99223.48;;;4.81;100.00
49709;BME280;35601;55.902;13.606;2023-03-23T01:33:02;99221.48;;;5.20;100.00
49709;BME280;35601;55.902;13.606;2023-03-23T01:35:28;99219.91;;;5.09;100.00
49709;BME280;35601;55.902;13.606;2023-03-23T01:37:52;99223.76;;;4.90;100.00
49709;BME280;35601;55.902;13.606;2023-03-23T01:40:18;99223.55;;;4.63;100.00
49709;BME280;35601;55.902;13.606;2023-03-23T01:42:43;99226.13;;;4.66;100.00
49709;BME280;35601;55.902;13.606;2023-03-23T01:45:22;99226.01;;;4.70;100.00
49709;BME280;35601;55.902;13.606;2023-03-23T01:47:34;99220.37;;;5.00;100.00
49709;BME280;35601;55.902;13.606;2023-03-23T01:50:01;99216.60;;;4.85;100.00
49709;BME280;35601;55.902;13.606;2023-03-23T01:52:26;99214.30;;;4.66;100.00
49709;BME280;35601;55.902;13.606;2023-03-23T01:54:52;99212.37;;;4.75;100.00
49709;BME280;35601;55.902;13.606;2023-03-23T01:57:17;99210.64;;;4.96;100.00
49709;BME280;35601;55.902;13.606;2023-03-23T01:59:42;99208.26;;;4.91;100.00
49709;BME280;35601;55.902;13.606;2023-03-23T02:02:06;99202.55;;;4.94;100.00
49709;BME280;35601;55.902;13.606;2023-03-23T02:04:33;99210.19;;;4.85;100.00
49709;BME280;35601;55.902;13.606;2023-03-23T02:06:57;99202.90;;;4.81;100.00
49709;BME280;35601;55.902;13.606;2023-03-23T02:09:25;99196.99;;;4.63;100.00
49709;BME280;35601;55.902;13.606;2023-03-23T02:11:49;99198.68;;;4.28;100.00
49709;BME280;35601;55.902;13.606;2023-03-23T02:14:13;99196.60;;;4.36;100.00
49709;BME280;35601;55.902;13.606;2023-03-23T02:16:44;99194.43;;;4.60;100.00
49709;BME280;35601;55.902;13.606;2023-03-23T02:24:13;99176.07;;;4.23;100.00
49709;BME280;35601;55.902;13.606;2023-03-23T02:26:38;99172.23;;;4.10;100.00
49709;BME280;35601;55.902;13.606;2023-03-23T02:31:24;99160.41;;;4.39;100.00
49709;BME280;35601;55.902;13.606;2023-03-23T02:33:44;99154.43;;;4.40;100.00
49709;BME280;35601;55.902;13.606;2023-03-23T02:36:11;99150.15;;;4.01;100.00
49709;BME280;35601;55.902;13.606;2023-03-23T02:38:35;99148.11;;;4.01;100.00
49709;BME280;35601;55.902;13.606;2023-03-23T02:40:56;99144.52;;;4.11;100.00
49709;BME280;35601;55.902;13.606;2023-03-23T02:43:24;99140.84;;;4.02;100.00
49709;BME280;35601;55.902;13.606;2023-03-23T02:45:46;99140.71;;;4.17;100.00
49709;BME280;35601;55.902;13.606;2023-03-23T02:48:14;99143.49;;;4.24;100.00
49709;BME280;35601;55.902;13.606;2023-03-23T02:50:38;99145.48;;;4.08;100.00
49709;BME280;35601;55.902;13.606;2023-03-23T02:53:03;99145.48;;;4.24;100.00
49709;BME280;35601;55.902;13.606;2023-03-23T02:55:28;99137.84;;;4.33;100.00
49709;BME280;35601;55.902;13.606;2023-03-23T02:57:54;99129.37;;;4.11;100.00
49709;BME280;35601;55.902;13.606;2023-03-23T03:00:19;99130.65;;;4.12;100.00
49709;BME280;35601;55.902;13.606;2023-03-23T03:02:45;99132.36;;;4.19;100.00
49709;BME280;35601;55.902;13.606;2023-03-23T03:05:14;99131.01;;;4.14;100.00
49709;BME280;35601;55.902;13.606;2023-03-23T03:07:46;99132.57;;;4.15;100.00
49709;BME280;35601;55.902;13.606;2023-03-23T03:10:02;99132.82;;;4.17;100.00
49709;BME280;35601;55.902;13.606;2023-03-23T03:12:33;99128.21;;;4.30;100.00
49709;BME280;35601;55.902;13.606;2023-03-23T03:14:58;99121.57;;;4.26;100.00
49709;BME280;35601;55.902;13.606;2023-03-23T03:17:22;99115.94;;;4.31;100.00
49709;BME280;35601;55.902;13.606;2023-03-23T03:19:45;99118.30;;;3.98;100.00
49709;BME280;35601;55.902;13.606;2023-03-23T03:22:08;99110.36;;;4.17;100.00
49709;BME280;35601;55.902;13.606;2023-03-23T03:24:34;99109.89;;;4.60;100.00
49709;BME280;35601;55.902;13.606;2023-03-23T03:27:00;99101.87;;;4.14;100.00
49709;BME280;35601;55.902;13.606;2023-03-23T03:29:28;99101.57;;;4.07;100.00
49709;BME280;35601;55.902;13.606;2023-03-23T03:31:52;99098.83;;;4.52;100.00
49709;BME280;35601;55.902;13.606;2023-03-23T03:34:15;99096.73;;;4.30;100.00
49709;BME280;35601;55.902;13.606;2023-03-23T03:36:40;99095.32;;;4.11;100.00
49709;BME280;35601;55.902;13.606;2023-03-23T03:39:07;99089.01;;;4.25;100.00
49709;BME280;35601;55.902;13.606;2023-03-23T03:41:31;99089.75;;;3.99;100.00
49709;BME280;35601;55.902;13.606;2023-03-23T03:43:57;99087.64;;;4.16;100.00
49709;BME280;35601;55.902;13.606;2023-03-23T03:46:22;99085.28;;;4.21;100.00
49709;BME280;35601;55.902;13.606;2023-03-23T03:48:47;99084.30;;;4.05;100.00
49709;BME280;35601;55.902;13.606;2023-03-23T03:51:13;99084.90;;;4.15;100.00
49709;BME280;35601;55.902;13.606;2023-03-23T03:53:39;99084.37;;;4.14;100.00
49709;BME280;35601;55.902;13.606;2023-03-23T03:56:06;99088.92;;;4.31;100.00
49709;BME280;35601;55.902;13.606;2023-03-23T03:58:29;99091.15;;;4.39;100.00
49709;BME280;35601;55.902;13.606;2023-03-23T04:00:54;99086.42;;;4.14;100.00
49709;BME280;35601;55.902;13.606;2023-03-23T04:03:20;99084.61;;;4.24;100.00
49709;BME280;35601;55.902;13.606;2023-03-23T04:05:45;99075.26;;;3.75;100.00
49709;BME280;35601;55.902;13.606;2023-03-23T04:08:12;99072.38;;;4.16;100.00
49709;BME280;35601;55.902;13.606;2023-03-23T04:10:37;99065.30;;;4.06;100.00
49709;BME280;35601;55.902;13.606;2023-03-23T04:13:02;99068.96;;;4.32;100.00
49709;BME280;35601;55.902;13.606;2023-03-23T04:15:29;99067.32;;;4.16;100.00
49709;BME280;35601;55.902;13.606;2023-03-23T04:17:54;99065.27;;;4.20;100.00
49709;BME280;35601;55.902;13.606;2023-03-23T04:20:18;99068.34;;;4.39;100.00
49709;BME280;35601;55.902;13.606;2023-03-23T04:22:43;99065.26;;;4.21;100.00
49709;BME280;35601;55.902;13.606;2023-03-23T04:25:09;99074.04;;;4.27;100.00
49709;BME280;35601;55.902;13.606;2023-03-23T04:27:34;99073.16;;;4.31;100.00
49709;BME280;35601;55.902;13.606;2023-03-23T04:29:59;99064.33;;;4.33;100.00
49709;BME280;35601;55.902;13.606;2023-03-23T04:32:25;99064.87;;;4.33;100.00
49709;BME280;35601;55.902;13.606;2023-03-23T04:34:51;99064.38;;;4.50;100.00
49709;BME280;35601;55.902;13.606;2023-03-23T04:37:16;99063.94;;;4.28;100.00
49709;BME280;35601;55.902;13.606;2023-03-23T04:39:41;99065.52;;;4.31;100.00
49709;BME280;35601;55.902;13.606;2023-03-23T04:42:06;99063.65;;;4.28;100.00
49709;BME280;35601;55.902;13.606;2023-03-23T04:46:57;99057.87;;;4.02;100.00
49709;BME280;35601;55.902;13.606;2023-03-23T04:49:23;99055.41;;;4.10;100.00
49709;BME280;35601;55.902;13.606;2023-03-23T04:51:48;99056.17;;;4.30;100.00
49709;BME280;35601;55.902;13.606;2023-03-23T04:54:14;99053.86;;;3.99;100.00
49709;BME280;35601;55.902;13.606;2023-03-23T04:56:39;99049.22;;;4.27;100.00
49709;BME280;35601;55.902;13.606;2023-03-23T04:59:05;99045.78;;;4.32;100.00
49709;BME280;35601;55.902;13.606;2023-03-23T05:01:32;99039.85;;;4.11;100.00
49709;BME280;35601;55.902;13.606;2023-03-23T05:03:56;99036.75;;;4.44;100.00
49709;BME280;35601;55.902;13.606;2023-03-23T05:06:21;99030.25;;;4.05;100.00
49709;BME280;35601;55.902;13.606;2023-03-23T05:08:48;99030.11;;;4.04;100.00
49709;BME280;35601;55.902;13.606;2023-03-23T05:11:12;99031.81;;;4.17;100.00
49709;BME280;35601;55.902;13.606;2023-03-23T05:13:37;99029.60;;;4.06;100.00
49709;BME280;35601;55.902;13.606;2023-03-23T05:16:04;99029.89;;;4.24;100.00
49709;BME280;35601;55.902;13.606;2023-03-23T05:18:28;99030.29;;;4.15;100.00
49709;BME280;35601;55.902;13.606;2023-03-23T05:20:59;99034.19;;;4.19;100.00
49709;BME280;35601;55.902;13.606;2023-03-23T05:23:20;99034.28;;;4.10;100.00
49709;BME280;35601;55.902;13.606;2023-03-23T05:25:54;99032.11;;;4.40;100.00
49709;BME280;35601;55.902;13.606;2023-03-23T05:28:12;99033.89;;;3.50;100.00
49709;BME280;35601;55.902;13.606;2023-03-23T05:30:37;99036.36;;;4.00;100.00
49709;BME280;35601;55.902;13.606;2023-03-23T05:33:02;99036.42;;;4.07;100.00
49709;BME280;35601;55.902;13.606;2023-03-23T05:35:28;99036.15;;;4.24;100.00
49709;BME280;35601;55.902;13.606;2023-03-23T05:37:53;99033.56;;;4.01;100.00
49709;BME280;35601;55.902;13.606;2023-03-23T05:40:20;99034.84;;;4.24;100.00
49709;BME280;35601;55.902;13.606;2023-03-23T05:42:44;99028.49;;;4.03;100.00
49709;BME280;35601;55.902;13.606;2023-03-23T05:45:10;99031.00;;;4.24;100.00
49709;BME280;35601;55.902;13.606;2023-03-23T05:47:35;99030.56;;;3.87;100.00
49709;BME280;35601;55.902;13.606;2023-03-23T05:50:00;99029.40;;;4.21;100.00
49709;BME280;35601;55.902;13.606;2023-03-23T05:52:26;99031.22;;;4.33;100.00
49709;BME280;35601;55.902;13.606;2023-03-23T05:54:51;99032.27;;;4.34;100.00
49709;BME280;35601;55.902;13.606;2023-03-23T05:57:17;99031.46;;;3.81;100.00
49709;BME280;35601;55.902;13.606;2023-03-23T05:59:43;99031.57;;;3.75;100.00
49709;BME280;35601;55.902;13.606;2023-03-23T06:02:07;99035.23;;;3.59;100.00
49709;BME280;35601;55.902;13.606;2023-03-23T06:04:34;99032.22;;;3.93;100.00
49709;BME280;35601;55.902;13.606;2023-03-23T06:07:00;99031.91;;;4.14;100.00
49709;BME280;35601;55.902;13.606;2023-03-23T06:09:24;99026.21;;;4.03;100.00
49709;BME280;35601;55.902;13.606;2023-03-23T06:11:50;99025.79;;;3.90;100.00
49709;BME280;35601;55.902;13.606;2023-03-23T06:14:15;99030.05;;;4.24;100.00
49709;BME280;35601;55.902;13.606;2023-03-23T06:16:41;99026.27;;;3.88;100.00
49709;BME280;35601;55.902;13.606;2023-03-23T06:19:06;99028.77;;;3.71;100.00
49709;BME280;35601;55.902;13.606;2023-03-23T06:21:32;99027.28;;;4.14;100.00
49709;BME280;35601;55.902;13.606;2023-03-23T06:23:58;99029.17;;;3.76;100.00
49709;BME280;35601;55.902;13.606;2023-03-23T06:26:25;99037.04;;;4.00;100.00
49709;BME280;35601;55.902;13.606;2023-03-23T06:28:48;99037.64;;;4.08;100.00
49709;BME280;35601;55.902;13.606;2023-03-23T06:31:13;99037.98;;;3.66;100.00
49709;BME280;35601;55.902;13.606;2023-03-23T06:33:38;99039.05;;;3.95;100.00
49709;BME280;35601;55.902;13.606;2023-03-23T06:36:05;99038.62;;;4.00;100.00
49709;BME280;35601;55.902;13.606;2023-03-23T06:38:29;99036.71;;;3.99;100.00
49709;BME280;35601;55.902;13.606;2023-03-23T06:40:55;99043.20;;;3.93;100.00
49709;BME280;35601;55.902;13.606;2023-03-23T06:43:20;99039.87;;;4.10;100.00
49709;BME280;35601;55.902;13.606;2023-03-23T06:45:45;99040.74;;;3.88;100.00
49709;BME280;35601;55.902;13.606;2023-03-23T06:48:10;99039.26;;;4.24;100.00
49709;BME280;35601;55.902;13.606;2023-03-23T06:50:35;99041.18;;;4.07;100.00
49709;BME280;35601;55.902;13.606;2023-03-23T06:53:01;99044.47;;;4.44;100.00
49709;BME280;35601;55.902;13.606;2023-03-23T06:55:26;99041.72;;;4.33;100.00
49709;BME280;35601;55.902;13.606;2023-03-23T06:57:51;99040.04;;;4.31;100.00
49709;BME280;35601;55.902;13.606;2023-03-23T07:00:18;99039.08;;;4.58;100.00
49709;BME280;35601;55.902;13.606;2023-03-23T07:02:43;99035.67;;;4.35;100.00
49709;BME280;35601;55.902;13.606;2023-03-23T07:05:09;99038.90;;;4.49;100.00
49709;BME280;35601;55.902;13.606;2023-03-23T07:07:33;99033.53;;;4.17;100.00
49709;BME280;35601;55.902;13.606;2023-03-23T07:09:59;99031.20;;;4.36;100.00
49709;BME280;35601;55.902;13.606;2023-03-23T07:12:25;99027.34;;;4.32;100.00
49709;BME280;35601;55.902;13.606;2023-03-23T07:14:52;99026.65;;;4.25;100.00
49709;BME280;35601;55.902;13.606;2023-03-23T07:17:16;99017.50;;;4.19;100.00
49709;BME280;35601;55.902;13.606;2023-03-23T07:19:42;99013.83;;;3.93;100.00
49709;BME280;35601;55.902;13.606;2023-03-23T07:22:07;99005.94;;;4.26;100.00
49709;BME280;35601;55.902;13.606;2023-03-23T07:24:32;99000.02;;;4.15;100.00
49709;BME280;35601;55.902;13.606;2023-03-23T07:26:58;98992.29;;;4.36;100.00
49709;BME280;35601;55.902;13.606;2023-03-23T07:29:23;98988.37;;;4.32;100.00
49709;BME280;35601;55.902;13.606;2023-03-23T07:31:48;98992.69;;;4.65;100.00
49709;BME280;35601;55.902;13.606;2023-03-23T07:34:14;98997.29;;;4.69;100.00
49709;BME280;35601;55.902;13.606;2023-03-23T07:36:40;99011.33;;;4.76;100.00
49709;BME280;35601;55.902;13.606;2023-03-23T07:39:05;99021.31;;;5.12;100.00
49709;BME280;35601;55.902;13.606;2023-03-23T07:41:31;99026.03;;;4.88;100.00
49709;BME280;35601;55.902;13.606;2023-03-23T07:43:56;99025.37;;;5.06;100.00
49709;BME280;35601;55.902;13.606;2023-03-23T07:46:22;99031.93;;;5.21;99.15
49709;BME280;35601;55.902;13.606;2023-03-23T07:48:48;99037.97;;;5.51;97.69
49709;BME280;35601;55.902;13.606;2023-03-23T07:51:13;99035.95;;;5.46;96.44
49709;BME280;35601;55.902;13.606;2023-03-23T07:53:39;99023.83;;;5.82;95.22
49709;BME280;35601;55.902;13.606;2023-03-23T07:56:06;99022.80;;;5.35;94.54
49709;BME280;35601;55.902;13.606;2023-03-23T07:58:30;99018.17;;;5.54;93.99
49709;BME280;35601;55.902;13.606;2023-03-23T08:00:56;99018.99;;;5.59;93.65
49709;BME280;35601;55.902;13.606;2023-03-23T08:03:21;99027.14;;;5.69;93.05
49709;BME280;35601;55.902;13.606;2023-03-23T08:05:47;99025.89;;;5.73;92.75
49709;BME280;35601;55.902;13.606;2023-03-23T08:08:12;99016.68;;;5.60;92.65
49709;BME280;35601;55.902;13.606;2023-03-23T08:10:38;99007.07;;;5.70;92.86
49709;BME280;35601;55.902;13.606;2023-03-23T08:13:03;98998.55;;;5.23;94.91
49709;BME280;35601;55.902;13.606;2023-03-23T08:15:29;98993.37;;;5.50;95.79
49709;BME280;35601;55.902;13.606;2023-03-23T08:17:55;98987.72;;;5.53;96.46
49709;BME280;35601;55.902;13.606;2023-03-23T08:20:20;98989.59;;;5.54;97.02
49709;BME280;35601;55.902;13.606;2023-03-23T08:22:51;98993.68;;;5.27;97.56
49709;BME280;35601;55.902;13.606;2023-03-23T08:25:13;98997.65;;;5.59;98.74
49709;BME280;35601;55.902;13.606;2023-03-23T08:27:36;99005.03;;;5.40;97.79
49709;BME280;35601;55.902;13.606;2023-03-23T08:30:02;99010.68;;;5.12;98.65
49709;BME280;35601;55.902;13.606;2023-03-23T08:32:27;99004.61;;;5.57;99.23
49709;BME280;35601;55.902;13.606;2023-03-23T08:34:53;99002.55;;;5.68;99.64
49709;BME280;35601;55.902;13.606;2023-03-23T08:37:19;98997.37;;;6.01;98.44
49709;BME280;35601;55.902;13.606;2023-03-23T08:39:43;98989.86;;;6.23;97.08
49709;BME280;35601;55.902;13.606;2023-03-23T08:42:10;98986.19;;;6.48;95.75
49709;BME280;35601;55.902;13.606;2023-03-23T08:44:34;98996.01;;;6.40;94.02
49709;BME280;35601;55.902;13.606;2023-03-23T08:47:00;99003.95;;;6.13;94.34
49709;BME280;35601;55.902;13.606;2023-03-23T08:49:26;99010.10;;;6.61;94.08
49709;BME280;35601;55.902;13.606;2023-03-23T08:51:51;99007.51;;;6.51;93.19
49709;BME280;35601;55.902;13.606;2023-03-23T08:54:16;99001.39;;;6.56;93.30
49709;BME280;35601;55.902;13.606;2023-03-23T08:56:42;99007.83;;;6.35;90.54
49709;BME280;35601;55.902;13.606;2023-03-23T08:59:07;99011.36;;;6.62;89.78
49709;BME280;35601;55.902;13.606;2023-03-23T09:01:32;99012.82;;;6.27;89.08
49709;BME280;35601;55.902;13.606;2023-03-23T09:03:58;99008.11;;;6.70;89.08
49709;BME280;35601;55.902;13.606;2023-03-23T09:06:23;99006.33;;;6.11;89.55
49709;BME280;35601;55.902;13.606;2023-03-23T09:08:49;99002.30;;;6.29;89.78
49709;BME280;35601;55.902;13.606;2023-03-23T09:11:14;99002.51;;;6.17;90.07
49709;BME280;35601;55.902;13.606;2023-03-23T09:13:41;98995.23;;;6.16;90.15
49709;BME280;35601;55.902;13.606;2023-03-23T09:16:06;98995.94;;;6.12;89.57
49709;BME280;35601;55.902;13.606;2023-03-23T09:18:30;98995.93;;;5.98;90.14
49709;BME280;35601;55.902;13.606;2023-03-23T09:20:55;98993.22;;;5.96;90.88
49709;BME280;35601;55.902;13.606;2023-03-23T09:23:21;98989.01;;;5.67;91.11
49709;BME280;35601;55.902;13.606;2023-03-23T09:25:46;98992.68;;;5.50;91.40
49709;BME280;35601;55.902;13.606;2023-03-23T09:28:11;98998.38;;;5.57;91.70
49709;BME280;35601;55.902;13.606;2023-03-23T09:30:38;99003.06;;;5.39;93.27
49709;BME280;35601;55.902;13.606;2023-03-23T09:33:03;99004.26;;;5.35;92.17
49709;BME280;35601;55.902;13.606;2023-03-23T09:35:27;99002.27;;;5.40;93.32
49709;BME280;35601;55.902;13.606;2023-03-23T09:37:52;99009.34;;;5.22;93.75
49709;BME280;35601;55.902;13.606;2023-03-23T09:40:19;99013.07;;;5.27;93.98
49709;BME280;35601;55.902;13.606;2023-03-23T09:42:56;99022.81;;;5.37;94.96
49709;BME280;35601;55.902;13.606;2023-03-23T09:45:15;99023.44;;;5.02;94.53
49709;BME280;35601;55.902;13.606;2023-03-23T09:47:38;99010.58;;;5.14;95.55
49709;BME280;35601;55.902;13.606;2023-03-23T09:50:02;99008.30;;;4.69;98.16
49709;BME280;35601;55.902;13.606;2023-03-23T09:52:32;99009.65;;;4.79;98.87
49709;BME280;35601;55.902;13.606;2023-03-23T09:54:51;99005.40;;;4.78;100.00
49709;BME280;35601;55.902;13.606;2023-03-23T09:57:20;99012.31;;;4.49;100.00
49709;BME280;35601;55.902;13.606;2023-03-23T09:59:44;99023.56;;;4.00;100.00
49709;BME280;35601;55.902;13.606;2023-03-23T10:02:12;99023.65;;;4.40;100.00
49709;BME280;35601;55.902;13.606;2023-03-23T10:04:34;99022.00;;;4.52;100.00
49709;BME280;35601;55.902;13.606;2023-03-23T10:06:58;99016.12;;;4.72;100.00
49709;BME280;35601;55.902;13.606;2023-03-23T10:09:20;99018.25;;;4.59;100.00
49709;BME280;35601;55.902;13.606;2023-03-23T10:11:54;99022.72;;;4.98;99.68
49709;BME280;35601;55.902;13.606;2023-03-23T10:14:25;99022.57;;;4.74;100.00
49709;BME280;35601;55.902;13.606;2023-03-23T10:16:41;99024.25;;;5.07;100.00
49709;BME280;35601;55.902;13.606;2023-03-23T10:19:09;99020.37;;;4.72;100.00
49709;BME280;35601;55.902;13.606;2023-03-23T10:21:28;99012.46;;;4.64;100.00
49709;BME280;35601;55.902;13.606;2023-03-23T10:23:55;98998.94;;;4.30;100.00
49709;BME280;35601;55.902;13.606;2023-03-23T10:26:28;98995.91;;;4.37;100.00
49709;BME280;35601;55.902;13.606;2023-03-23T10:28:44;99000.41;;;4.35;100.00
49709;BME280;35601;55.902;13.606;2023-03-23T10:31:11;99000.19;;;4.13;100.00
49709;BME280;35601;55.902;13.606;2023-03-23T10:33:38;98993.14;;;4.14;100.00
49709;BME280;35601;55.902;13.606;2023-03-23T10:36:03;98982.88;;;4.55;100.00
49709;BME280;35601;55.902;13.606;2023-03-23T10:38:27;98980.94;;;4.58;100.00
49709;BME280;35601;55.902;13.606;2023-03-23T10:40:50;98970.19;;;4.70;100.00
49709;BME280;35601;55.902;13.606;2023-03-23T10:43:13;98975.01;;;4.82;100.00
49709;BME280;35601;55.902;13.606;2023-03-23T10:45:39;98976.53;;;4.73;100.00
49709;BME280;35601;55.902;13.606;2023-03-23T10:48:12;98962.56;;;4.75;100.00
49709;BME280;35601;55.902;13.606;2023-03-23T10:50:31;98961.60;;;4.85;100.00
49709;BME280;35601;55.902;13.606;2023-03-23T10:52:57;98960.39;;;4.32;100.00
49709;BME280;35601;55.902;13.606;2023-03-23T10:55:21;98958.49;;;4.67;100.00
49709;BME280;35601;55.902;13.606;2023-03-23T11:00:17;98953.98;;;4.25;100.00
49709;BME280;35601;55.902;13.606;2023-03-23T11:02:39;98950.57;;;4.21;100.00
49709;BME280;35601;55.902;13.606;2023-03-23T11:05:02;98946.83;;;4.09;100.00
49709;BME280;35601;55.902;13.606;2023-03-23T11:07:29;98946.69;;;4.45;100.00
49709;BME280;35601;55.902;13.606;2023-03-23T11:09:54;98940.48;;;4.90;100.00
49709;BME280;35601;55.902;13.606;2023-03-23T11:12:20;98938.55;;;5.04;100.00
49709;BME280;35601;55.902;13.606;2023-03-23T11:14:42;98937.62;;;4.66;100.00
49709;BME280;35601;55.902;13.606;2023-03-23T11:19:34;98939.61;;;5.31;100.00
49709;BME280;35601;55.902;13.606;2023-03-23T11:22:04;98935.94;;;5.10;100.00
49709;BME280;35601;55.902;13.606;2023-03-23T11:24:23;98931.81;;;5.30;100.00
49709;BME280;35601;55.902;13.606;2023-03-23T11:26:49;98931.84;;;5.20;100.00
49709;BME280;35601;55.902;13.606;2023-03-23T11:29:16;98925.54;;;5.71;100.00
49709;BME280;35601;55.902;13.606;2023-03-23T11:31:41;98921.62;;;5.45;100.00
49709;BME280;35601;55.902;13.606;2023-03-23T11:34:10;98923.27;;;5.82;100.00
49709;BME280;35601;55.902;13.606;2023-03-23T11:36:35;98919.30;;;5.80;100.00
49709;BME280;35601;55.902;13.606;2023-03-23T11:38:56;98918.40;;;5.81;100.00
49709;BME280;35601;55.902;13.606;2023-03-23T11:41:22;98918.72;;;5.60;100.00
49709;BME280;35601;55.902;13.606;2023-03-23T11:43:52;98927.60;;;5.75;100.00
49709;BME280;35601;55.902;13.606;2023-03-23T11:46:20;98932.80;;;5.94;100.00
49709;BME280;35601;55.902;13.606;2023-03-23T11:48:43;98932.67;;;5.93;100.00
49709;BME280;35601;55.902;13.606;2023-03-23T11:51:05;98931.74;;;5.50;100.00
49709;BME280;35601;55.902;13.606;2023-03-23T11:53:35;98952.22;;;5.94;100.00
49709;BME280;35601;55.902;13.606;2023-03-23T11:56:01;98948.35;;;6.35;100.00
49709;BME280;35601;55.902;13.606;2023-03-23T11:58:19;98963.69;;;6.61;99.95
49709;BME280;35601;55.902;13.606;2023-03-23T12:00:49;98966.45;;;6.40;99.35
49709;BME280;35601;55.902;13.606;2023-03-23T12:03:32;98978.07;;;6.71;98.83
49709;BME280;35601;55.902;13.606;2023-03-23T12:05:42;98971.89;;;6.94;100.00
49709;BME280;35601;55.902;13.606;2023-03-23T12:08:10;98969.77;;;7.29;99.86
49709;BME280;35601;55.902;13.606;2023-03-23T12:10:30;98965.11;;;7.50;100.00
49709;BME280;35601;55.902;13.606;2023-03-23T12:12:58;98966.62;;;8.07;93.41
49709;BME280;35601;55.902;13.606;2023-03-23T12:15:23;98960.49;;;8.58;90.89
49709;BME280;35601;55.902;13.606;2023-03-23T12:17:51;98969.41;;;8.56;90.82
49709;BME280;35601;55.902;13.606;2023-03-23T12:20:18;98969.38;;;8.41;87.30
49709;BME280;35601;55.902;13.606;2023-03-23T12:22:42;98968.66;;;8.56;84.07
49709;BME280;35601;55.902;13.606;2023-03-23T12:25:09;98967.77;;;8.83;82.87
49709;BME280;35601;55.902;13.606;2023-03-23T12:27:29;98958.84;;;9.37;85.46
49709;BME280;35601;55.902;13.606;2023-03-23T12:30:02;98950.94;;;9.36;84.65
49709;BME280;35601;55.902;13.606;2023-03-23T12:32:28;98957.31;;;9.41;80.95
49709;BME280;35601;55.902;13.606;2023-03-23T12:34:41;98952.30;;;9.32;79.93
49709;BME280;35601;55.902;13.606;2023-03-23T12:37:17;98958.90;;;9.95;80.52
49709;BME280;35601;55.902;13.606;2023-03-23T12:39:38;98955.10;;;9.62;78.35
49709;BME280;35601;55.902;13.606;2023-03-23T12:41:57;98956.29;;;9.56;77.25
49709;BME280;35601;55.902;13.606;2023-03-23T12:44:25;98962.60;;;9.67;78.55
49709;BME280;35601;55.902;13.606;2023-03-23T12:46:53;98961.19;;;9.50;79.27
49709;BME280;35601;55.902;13.606;2023-03-23T12:49:14;98956.28;;;9.64;78.58
49709;BME280;35601;55.902;13.606;2023-03-23T12:51:40;98958.15;;;9.48;78.98
49709;BME280;35601;55.902;13.606;2023-03-23T12:54:07;98959.38;;;8.76;79.44
49709;BME280;35601;55.902;13.606;2023-03-23T12:56:31;98965.09;;;9.11;80.31